CBBC

Bella Bella / Campbell Island Airport

Bella Bella, , Canada
METAR CBBC 190936Z AUTO 16002KT 3SM -RA BR OVC008 10/10 A3005 RMK SLP178
Observed Flight Rules
Sep-19 @ 09:36 UTC (9 minutes ago) Instrument Flight Rules
Wind Visibility Clouds Conditions
160° at 2 knots 3 miles
  • Overcast at 800' AGL
  • Light Rain
  • Mist
Temperatures Readings
Current 10°C / 50°F
Dewpoint 10°C / 50°F
Humidity 100%
Altimeter 30.05" Hg
Pressure 1017.8 hPa
Elevation 43
METAR CBBC 190936Z AUTO 16002KT 3SM -RA BR OVC008 10/10 A3005 RMK SLP178
Observed Flight Rules
Sep-19 @ 09:36 UTC
(9 minutes ago)
IFR
Wind Visibility
160° at 2 knots 3 miles
Clouds
  • Overcast at 800' AGL
Conditions
  • Light Rain
  • Mist
Temperature Dewpoint
10°C / 50°F 10°C / 50°F
Humidity Altimeter Pressure
100% 30.05" Hg 1017.8 hPa